createdAt,value
2018-08-03T00:03:28.130Z,58.00
2018-08-03T00:07:31.510Z,57.80
2018-08-03T00:11:34.848Z,58.80
2018-08-03T00:15:39.207Z,57.60
2018-08-03T00:19:42.574Z,59.10
2018-08-03T00:23:45.903Z,58.50
2018-08-03T00:27:49.257Z,59.80
2018-08-03T00:31:53.273Z,60.90
2018-08-03T00:35:56.635Z,58.50
2018-08-03T00:39:59.972Z,58.40
2018-08-03T00:48:06.375Z,60.60
2018-08-03T00:52:09.712Z,60.10
2018-08-03T00:56:14.268Z,60.10
2018-08-03T01:00:17.684Z,58.80
2018-08-03T01:04:21.027Z,61.30
2018-08-03T01:08:25.649Z,60.00
2018-08-03T01:12:29.012Z,61.80
2018-08-03T01:16:36.579Z,60.80
2018-08-03T01:20:39.906Z,60.00
2018-08-03T01:24:43.222Z,63.40
2018-08-03T01:28:46.578Z,60.20
2018-08-03T01:32:50.179Z,59.80
2018-08-03T01:36:53.502Z,60.40
2018-08-03T01:40:56.856Z,61.00
2018-08-03T01:45:00.206Z,60.30
2018-08-03T01:49:03.533Z,59.70
2018-08-03T01:53:06.879Z,60.90
2018-08-03T01:57:10.195Z,60.90
2018-08-03T02:01:13.571Z,59.40
2018-08-03T02:05:16.879Z,62.10
2018-08-03T02:09:20.316Z,63.10
2018-08-03T02:13:23.672Z,62.30
2018-08-03T02:17:27.008Z,61.10
2018-08-03T02:21:30.628Z,62.20
2018-08-03T02:25:34.007Z,60.20
2018-08-03T02:29:37.359Z,61.50
2018-08-03T02:33:40.690Z,60.60
2018-08-03T02:37:44.022Z,60.70
2018-08-03T02:41:47.365Z,60.00
2018-08-03T02:45:50.703Z,60.70
2018-08-03T02:49:54.012Z,60.90
2018-08-03T02:53:57.334Z,61.10
2018-08-03T02:58:00.696Z,60.40
2018-08-03T03:02:04.083Z,62.70
2018-08-03T03:10:10.594Z,63.40
2018-08-03T03:14:13.954Z,60.90
2018-08-03T03:18:17.287Z,62.80
2018-08-03T03:22:20.598Z,62.70
2018-08-03T03:26:23.932Z,62.50
2018-08-03T03:30:27.232Z,61.10
2018-08-03T03:34:30.557Z,61.70
2018-08-03T03:38:35.213Z,62.30
2018-08-03T03:42:39.590Z,62.60
2018-08-03T03:46:42.923Z,62.70
2018-08-03T03:50:46.316Z,65.30
2018-08-03T03:54:49.646Z,62.60
2018-08-03T03:58:53.116Z,62.50
2018-08-03T04:02:56.452Z,64.30
2018-08-03T04:06:59.800Z,63.80
2018-08-03T04:11:03.212Z,63.00
2018-08-03T04:15:06.579Z,63.90
2018-08-03T04:19:09.955Z,64.20
2018-08-03T04:23:13.304Z,66.00
2018-08-03T04:31:19.687Z,63.40
2018-08-03T04:35:23.011Z,63.80
2018-08-03T04:39:26.345Z,62.90
2018-08-03T04:43:29.739Z,65.30
2018-08-03T04:47:33.083Z,62.00
2018-08-03T04:51:36.462Z,63.30
2018-08-03T04:55:39.793Z,63.70
2018-08-03T04:59:43.182Z,64.20
2018-08-03T05:03:46.528Z,63.30
2018-08-03T05:07:49.866Z,63.10
2018-08-03T05:11:53.303Z,62.90
2018-08-03T05:15:56.652Z,64.00
2018-08-03T05:19:59.993Z,63.70
2018-08-03T05:24:03.334Z,65.40
2018-08-03T05:28:06.679Z,63.90
2018-08-03T05:32:10.039Z,63.70
2018-08-03T05:36:13.411Z,65.60
2018-08-03T05:40:16.814Z,66.50
2018-08-03T05:44:20.147Z,80.50
2018-08-03T05:48:23.493Z,71.40
2018-08-03T05:52:27.507Z,70.60
2018-08-03T05:56:30.794Z,67.50
2018-08-03T06:00:34.226Z,66.80
2018-08-03T06:04:37.578Z,64.50
2018-08-03T06:08:40.937Z,63.30
2018-08-03T06:12:44.243Z,64.20
2018-08-03T06:16:47.578Z,63.80
2018-08-03T06:20:50.907Z,64.10
2018-08-03T06:24:54.265Z,63.90
2018-08-03T06:28:57.616Z,65.80
2018-08-03T06:33:00.945Z,64.10
2018-08-03T06:37:04.291Z,63.00
2018-08-03T06:41:07.722Z,62.40
2018-08-03T06:45:11.044Z,62.70
2018-08-03T06:49:14.387Z,62.20
2018-08-03T06:53:17.717Z,64.10
2018-08-03T06:57:21.087Z,62.30
2018-08-03T07:01:24.489Z,62.40
2018-08-03T07:05:27.847Z,62.00
2018-08-03T07:09:31.188Z,63.00
2018-08-03T07:13:34.508Z,60.60
2018-08-03T07:17:37.883Z,63.80
2018-08-03T07:21:41.227Z,66.20
2018-08-03T07:25:44.545Z,65.20
2018-08-03T07:29:47.866Z,62.20
2018-08-03T07:33:51.171Z,65.00
2018-08-03T07:37:54.529Z,61.50
2018-08-03T07:41:57.923Z,61.20
2018-08-03T07:46:01.265Z,61.20
2018-08-03T07:50:04.794Z,63.90
2018-08-03T07:54:08.136Z,62.10
2018-08-03T07:58:11.472Z,61.70
2018-08-03T08:02:14.793Z,63.60
2018-08-03T08:06:18.154Z,61.60
2018-08-03T08:10:21.484Z,62.50
2018-08-03T08:14:24.822Z,62.10
2018-08-03T08:18:28.135Z,61.70
2018-08-03T08:22:31.455Z,61.90
2018-08-03T08:26:34.791Z,63.40
2018-08-03T08:30:38.105Z,62.40
2018-08-03T08:34:41.431Z,62.40
2018-08-03T08:38:44.766Z,61.50
2018-08-03T08:42:48.087Z,61.40
2018-08-03T08:46:51.428Z,63.00
2018-08-03T08:50:54.747Z,62.00
2018-08-03T08:54:58.064Z,62.30
2018-08-03T09:03:04.494Z,61.20
2018-08-03T09:07:07.924Z,61.40
2018-08-03T09:11:11.404Z,61.10
2018-08-03T09:15:14.743Z,60.60
2018-08-03T09:19:18.067Z,59.40
2018-08-03T09:23:21.387Z,60.20
2018-08-03T09:27:24.715Z,60.40
2018-08-03T09:31:28.143Z,60.20
2018-08-03T09:35:31.473Z,60.30
2018-08-03T09:39:34.815Z,59.90
2018-08-03T09:43:38.224Z,57.80
2018-08-03T09:47:41.550Z,56.80
2018-08-03T09:51:44.984Z,59.20
2018-08-03T09:55:48.329Z,56.00
2018-08-03T09:59:51.690Z,56.10
2018-08-03T10:03:55.022Z,58.40
2018-08-03T10:07:58.369Z,58.10
2018-08-03T10:12:01.693Z,57.80
2018-08-03T10:16:05.127Z,58.10
2018-08-03T10:20:08.478Z,57.40
2018-08-03T10:24:11.799Z,56.70
2018-08-03T10:28:15.107Z,57.30
2018-08-03T10:32:18.460Z,56.00
2018-08-03T10:36:21.781Z,55.90
2018-08-03T10:40:25.104Z,55.40
2018-08-03T10:44:28.447Z,51.80
2018-08-03T10:48:31.762Z,49.80
2018-08-03T10:52:35.112Z,52.50
2018-08-03T10:56:38.477Z,56.60
2018-08-03T11:00:41.823Z,55.40
2018-08-03T11:04:45.154Z,54.10
2018-08-03T11:08:48.479Z,53.50
2018-08-03T11:12:52.286Z,55.50
2018-08-03T11:16:55.624Z,54.80
2018-08-03T11:20:58.947Z,54.00
2018-08-03T11:25:02.800Z,49.70
2018-08-03T11:29:06.107Z,53.60
2018-08-03T11:33:09.427Z,45.30
2018-08-03T11:37:12.763Z,52.40
2018-08-03T11:41:16.196Z,50.40
2018-08-03T11:45:19.526Z,51.20
2018-08-03T11:49:22.823Z,53.10
2018-08-03T11:53:26.148Z,51.50
2018-08-03T11:57:29.495Z,51.60
2018-08-03T12:01:32.927Z,49.60
2018-08-03T12:05:36.391Z,52.00
2018-08-03T12:09:39.786Z,51.50
2018-08-03T12:13:43.199Z,51.70
2018-08-03T12:17:46.578Z,47.40
2018-08-03T12:21:49.957Z,50.70
2018-08-03T12:25:54.214Z,52.20
2018-08-03T12:29:57.543Z,49.80
2018-08-03T12:34:00.983Z,50.60
2018-08-03T12:38:04.397Z,51.10
2018-08-03T12:42:07.867Z,47.90
2018-08-03T12:46:11.212Z,50.30
2018-08-03T12:50:15.258Z,49.10
2018-08-03T12:54:18.714Z,41.70
2018-08-03T12:58:22.106Z,47.10
2018-08-03T13:02:25.432Z,46.40
2018-08-03T13:06:28.778Z,47.20
2018-08-03T13:10:32.658Z,48.40
2018-08-03T13:14:36.007Z,47.20
2018-08-03T13:18:39.342Z,47.90
2018-08-03T13:30:48.796Z,48.40
2018-08-03T13:34:52.142Z,49.40
2018-08-03T13:38:55.508Z,48.40
2018-08-03T13:47:02.988Z,48.20
2018-08-03T13:51:06.347Z,47.50
2018-08-03T13:55:09.957Z,46.00
2018-08-03T13:59:13.540Z,46.10
2018-08-03T14:03:16.895Z,48.50
2018-08-03T14:07:20.326Z,47.70
2018-08-03T14:11:23.663Z,46.70
2018-08-03T14:15:26.986Z,45.60
2018-08-03T14:19:30.326Z,45.90
2018-08-03T14:23:33.696Z,45.50
2018-08-03T14:27:37.011Z,47.40
2018-08-03T14:31:43.365Z,46.90
2018-08-03T14:35:46.696Z,46.70
2018-08-03T14:39:50.120Z,46.70
2018-08-03T14:43:53.490Z,47.40
2018-08-03T14:47:56.824Z,44.30
2018-08-03T14:52:00.190Z,45.40
2018-08-03T14:56:03.594Z,44.80
2018-08-03T15:00:07.194Z,45.20
2018-08-03T15:04:10.563Z,43.90
2018-08-03T15:08:14.767Z,45.40
2018-08-03T15:12:18.120Z,45.20
2018-08-03T15:16:21.491Z,44.70
2018-08-03T15:20:24.860Z,41.70
2018-08-03T15:24:28.215Z,45.10
2018-08-03T15:28:31.591Z,46.60
2018-08-03T15:32:34.927Z,43.60
2018-08-03T15:36:38.379Z,43.60
2018-08-03T15:40:41.734Z,42.80
2018-08-03T15:44:45.125Z,41.20
2018-08-03T15:48:48.456Z,42.10
2018-08-03T15:57:57.676Z,44.30
2018-08-03T16:02:01.039Z,44.70
2018-08-03T16:06:05.040Z,43.50
2018-08-03T16:10:08.805Z,40.20
2018-08-03T16:14:12.348Z,43.20
2018-08-03T16:18:15.763Z,41.30
2018-08-03T16:22:19.284Z,43.20
2018-08-03T16:26:22.786Z,41.10
2018-08-03T16:30:26.244Z,40.00
2018-08-03T16:34:29.654Z,42.30
2018-08-03T16:38:33.044Z,36.00
2018-08-03T16:42:36.644Z,36.80
2018-08-03T16:46:40.090Z,37.60
2018-08-03T16:50:43.511Z,38.60
2018-08-03T16:54:46.938Z,36.30
2018-08-03T16:58:50.340Z,42.60
2018-08-03T17:02:53.840Z,38.00
2018-08-03T17:06:57.190Z,41.00
2018-08-03T17:11:00.513Z,38.70
2018-08-03T17:15:03.908Z,39.00
2018-08-03T17:19:08.581Z,40.20
2018-08-03T17:23:11.977Z,40.70
2018-08-03T17:27:15.330Z,40.20
2018-08-03T17:31:18.671Z,39.80
2018-08-03T17:35:22.040Z,40.70
2018-08-03T17:39:25.388Z,41.90
2018-08-03T17:43:28.726Z,40.80
2018-08-03T17:47:32.064Z,41.80
2018-08-03T17:51:35.398Z,42.50
2018-08-03T17:55:38.745Z,42.40
2018-08-03T17:59:42.092Z,43.70
2018-08-03T18:03:45.411Z,44.40
2018-08-03T18:07:48.759Z,45.40
2018-08-03T18:11:52.083Z,45.60
2018-08-03T18:15:55.424Z,45.80
2018-08-03T18:19:58.742Z,46.10
2018-08-03T18:24:02.096Z,46.20
2018-08-03T18:28:05.500Z,46.40
2018-08-03T18:32:08.868Z,46.40
2018-08-03T18:36:12.267Z,47.10
2018-08-03T18:40:15.607Z,47.10
2018-08-03T18:44:18.975Z,46.80
2018-08-03T18:48:22.371Z,47.30
2018-08-03T18:52:25.767Z,47.10
2018-08-03T18:56:29.195Z,47.40
2018-08-03T19:00:32.592Z,47.90
2018-08-03T19:04:35.938Z,47.60
2018-08-03T19:08:39.717Z,47.90
2018-08-03T19:12:43.066Z,48.00
2018-08-03T19:16:46.399Z,48.00
2018-08-03T19:20:49.748Z,48.10
2018-08-03T19:24:53.113Z,48.80
2018-08-03T19:28:56.485Z,48.50
2018-08-03T19:32:59.860Z,48.60
2018-08-03T19:37:09.659Z,48.50
2018-08-03T19:41:13.099Z,48.60
2018-08-03T19:45:16.827Z,49.00
2018-08-03T19:49:20.589Z,49.60
2018-08-03T19:53:24.059Z,48.90
2018-08-03T19:57:27.547Z,48.40
2018-08-03T20:01:31.033Z,48.70
2018-08-03T20:05:34.548Z,48.90
2018-08-03T21:33:11.705Z,49.10
2018-08-03T21:37:15.108Z,51.30
2018-08-03T21:41:18.552Z,51.40
2018-08-03T21:45:21.915Z,50.80
2018-08-03T21:49:25.324Z,51.90
2018-08-03T21:53:29.322Z,50.80
2018-08-03T21:57:32.898Z,51.60
2018-08-03T22:01:36.254Z,51.90
2018-08-03T22:05:39.844Z,51.40
2018-08-03T22:09:43.185Z,51.50
2018-08-03T22:13:46.515Z,52.50
2018-08-03T22:17:49.936Z,52.50
2018-08-03T22:21:53.334Z,52.40
2018-08-03T22:25:57.331Z,53.00
2018-08-03T22:30:04.249Z,52.00
2018-08-03T22:34:07.719Z,51.70
2018-08-03T22:38:11.058Z,52.10
2018-08-03T22:42:14.461Z,52.60
2018-08-03T22:46:18.364Z,52.40
2018-08-03T22:50:24.751Z,52.50
2018-08-03T22:54:28.244Z,53.10
2018-08-03T22:58:31.589Z,53.40
2018-08-03T23:02:34.953Z,51.70
2018-08-03T23:06:39.335Z,52.40
2018-08-03T23:10:44.643Z,51.50
2018-08-03T23:14:47.963Z,53.50
2018-08-03T23:18:51.287Z,53.00
2018-08-03T23:22:54.651Z,53.60
2018-08-03T23:26:58.108Z,53.50
2018-08-03T23:31:02.347Z,53.80
2018-08-03T23:35:06.746Z,53.60
2018-08-03T23:39:10.331Z,54.40
2018-08-03T23:43:13.642Z,54.20
2018-08-03T23:47:16.979Z,54.40
2018-08-03T23:51:21.671Z,54.80
2018-08-03T23:55:25.246Z,54.20
2018-08-03T23:59:28.779Z,54.40
